createdAt,value
2023-09-01T00:04:50.420Z,13.20
2023-09-01T00:10:52.359Z,13.20
2023-09-01T00:16:54.374Z,13.00
2023-09-01T00:22:56.292Z,13.10
2023-09-01T00:28:59.411Z,12.90
2023-09-01T00:35:01.706Z,13.00
2023-09-01T00:41:04.318Z,12.90
2023-09-01T00:47:07.059Z,12.90
2023-09-01T00:53:09.530Z,13.00
2023-09-01T00:59:11.728Z,13.00
2023-09-01T01:05:16.837Z,13.00
2023-09-01T01:11:37.029Z,12.90
2023-09-01T01:17:43.952Z,12.80
2023-09-01T01:23:45.998Z,13.00
2023-09-01T01:29:48.731Z,12.90
2023-09-01T01:35:50.473Z,12.80
2023-09-01T01:41:56.793Z,12.80
2023-09-01T01:47:59.554Z,13.00
2023-09-01T01:54:01.369Z,13.00
2023-09-01T02:00:04.477Z,13.00
2023-09-01T02:06:07.236Z,12.70
2023-09-01T02:12:09.308Z,12.50
2023-09-01T02:18:11.104Z,12.40
2023-09-01T02:24:13.002Z,12.70
2023-09-01T02:30:14.958Z,12.60
2023-09-01T02:36:26.074Z,12.70
2023-09-01T02:42:28.231Z,12.80
2023-09-01T02:48:30.565Z,12.70
2023-09-01T02:54:32.365Z,12.60
2023-09-01T03:00:34.221Z,12.60
2023-09-01T03:06:36.188Z,12.60
2023-09-01T03:12:41.019Z,12.60
2023-09-01T03:18:43.092Z,12.70
2023-09-01T03:24:44.985Z,12.70
2023-09-01T03:30:46.979Z,12.70
2023-09-01T03:36:48.763Z,12.80
2023-09-01T03:42:50.766Z,12.90
2023-09-01T03:48:52.684Z,12.60
2023-09-01T03:54:54.572Z,12.70
2023-09-01T04:00:56.416Z,12.60
2023-09-01T04:06:58.355Z,12.70
2023-09-01T04:13:00.524Z,12.40
2023-09-01T04:19:02.416Z,12.40
2023-09-01T04:25:07.747Z,12.40
2023-09-01T04:31:26.684Z,12.70
2023-09-01T04:37:28.813Z,12.80
2023-09-01T04:43:30.539Z,12.40
2023-09-01T04:49:32.461Z,12.40
2023-09-01T04:55:34.763Z,12.30
2023-09-01T05:01:36.680Z,12.40
2023-09-01T05:07:38.590Z,12.10
2023-09-01T05:13:40.379Z,12.20
2023-09-01T05:19:42.160Z,12.40
2023-09-01T05:25:44.019Z,12.50
2023-09-01T05:31:45.906Z,12.60
2023-09-01T05:37:47.777Z,12.60
2023-09-01T05:43:49.448Z,12.50
2023-09-01T05:49:51.175Z,12.60
2023-09-01T05:55:52.905Z,12.70
2023-09-01T06:01:54.721Z,12.70
2023-09-01T06:07:56.935Z,12.70
2023-09-01T06:13:59.167Z,12.80
2023-09-01T06:20:01.187Z,12.90
2023-09-01T06:26:03.056Z,12.90
2023-09-01T06:32:05.192Z,12.80
2023-09-01T06:38:07.626Z,13.10
2023-09-01T06:44:09.510Z,13.20
2023-09-01T06:50:11.208Z,13.40
2023-09-01T06:56:13.160Z,13.50
2023-09-01T07:02:14.952Z,13.80
2023-09-01T07:08:16.811Z,14.10
2023-09-01T07:14:18.873Z,14.40
2023-09-01T07:20:20.810Z,14.60
2023-09-01T07:26:22.671Z,14.90
2023-09-01T07:32:24.428Z,15.00
2023-09-01T07:38:26.252Z,15.10
2023-09-01T07:44:28.030Z,15.50
2023-09-01T07:50:31.547Z,15.60
2023-09-01T07:56:35.280Z,15.60
2023-09-01T08:02:37.200Z,15.90
2023-09-01T08:08:38.911Z,15.60
2023-09-01T08:14:40.764Z,15.70
2023-09-01T08:20:43.681Z,15.70
2023-09-01T08:26:45.445Z,16.30
2023-09-01T08:32:47.261Z,16.60
2023-09-01T08:38:49.066Z,16.60
2023-09-01T08:44:51.170Z,16.00
2023-09-01T08:50:53.620Z,16.20
2023-09-01T08:56:55.369Z,16.90
2023-09-01T09:03:06.977Z,16.70
2023-09-01T09:09:13.463Z,16.90
2023-09-01T09:15:18.815Z,17.20
2023-09-01T09:21:30.727Z,17.50
2023-09-01T09:27:33.597Z,17.50
2023-09-01T09:33:35.619Z,17.30
2023-09-01T09:39:42.641Z,17.20
2023-09-01T09:45:46.229Z,17.30
2023-09-01T09:51:51.514Z,17.60
2023-09-01T09:57:55.629Z,17.80
2023-09-01T10:03:59.919Z,17.90
2023-09-01T10:10:02.259Z,17.80
2023-09-01T10:16:04.642Z,17.80
2023-09-01T10:22:07.871Z,17.60
2023-09-01T10:28:12.139Z,17.40
2023-09-01T10:34:15.229Z,17.50
2023-09-01T10:40:35.796Z,17.50
2023-09-01T10:46:37.579Z,17.30
2023-09-01T10:52:40.189Z,17.30
2023-09-01T10:58:44.983Z,17.20
2023-09-01T11:04:47.629Z,17.20
2023-09-01T11:10:49.339Z,17.00
2023-09-01T11:16:51.290Z,16.90
2023-09-01T11:22:53.189Z,16.90
2023-09-01T11:28:55.637Z,16.80
2023-09-01T11:34:58.670Z,16.70
2023-09-01T11:41:02.178Z,16.80
2023-09-01T11:47:11.538Z,16.80
2023-09-01T11:53:22.596Z,16.70
2023-09-01T11:59:24.531Z,16.80
2023-09-01T12:05:33.094Z,16.90
2023-09-01T12:11:34.966Z,16.90
2023-09-01T12:17:36.791Z,16.80
2023-09-01T12:23:41.092Z,16.80
2023-09-01T12:29:42.911Z,16.90
2023-09-01T12:35:44.744Z,17.10
2023-09-01T12:41:46.521Z,17.20
2023-09-01T12:47:48.465Z,17.20
2023-09-01T12:53:51.829Z,17.20
2023-09-01T12:59:53.595Z,17.30
2023-09-01T13:05:56.152Z,17.30
2023-09-01T13:11:57.896Z,17.30
2023-09-01T13:17:59.735Z,17.20
2023-09-01T13:24:01.688Z,17.10
2023-09-01T13:30:03.738Z,17.10
2023-09-01T13:36:05.541Z,17.10
2023-09-01T13:42:07.675Z,17.20
2023-09-01T13:48:09.435Z,17.00
2023-09-01T13:54:11.746Z,17.00
2023-09-01T14:00:13.844Z,16.90
2023-09-01T14:06:15.887Z,16.90
2023-09-01T14:12:17.982Z,16.80
2023-09-01T14:18:25.430Z,16.80
2023-09-01T14:24:27.209Z,16.60
2023-09-01T14:30:29.335Z,16.50
2023-09-01T14:36:31.065Z,16.40
2023-09-01T14:42:32.804Z,16.40
2023-09-01T14:48:34.822Z,16.30
2023-09-01T14:54:36.615Z,16.30
2023-09-01T15:00:38.355Z,16.30
2023-09-01T15:06:40.053Z,16.40
2023-09-01T15:12:45.253Z,16.50
2023-09-01T15:18:46.972Z,16.50
2023-09-01T15:24:48.689Z,16.60
2023-09-01T15:30:50.443Z,16.60
2023-09-01T15:36:52.372Z,16.50
2023-09-01T15:42:56.206Z,16.50
2023-09-01T15:48:57.887Z,16.50
2023-09-01T15:55:00.233Z,16.50
2023-09-01T16:01:18.709Z,16.50
2023-09-01T16:07:23.812Z,16.60
2023-09-01T16:13:25.789Z,16.50
2023-09-01T16:19:28.003Z,16.50
2023-09-01T16:25:29.796Z,16.50
2023-09-01T16:31:31.591Z,16.50
2023-09-01T16:37:33.574Z,16.50
2023-09-01T16:43:35.359Z,16.50
2023-09-01T16:49:37.522Z,16.50
2023-09-01T16:55:39.409Z,16.50
2023-09-01T17:01:41.225Z,16.60
2023-09-01T17:07:42.976Z,16.50
2023-09-01T17:13:45.147Z,16.40
2023-09-01T17:19:48.126Z,16.40
2023-09-01T17:25:49.892Z,16.30
2023-09-01T17:31:51.727Z,16.30
2023-09-01T17:37:55.415Z,16.30
2023-09-01T17:43:57.154Z,16.30
2023-09-01T17:49:58.906Z,16.30
2023-09-01T17:56:00.634Z,16.30
2023-09-01T18:02:03.712Z,16.30
2023-09-01T18:08:06.230Z,16.20
2023-09-01T18:14:08.794Z,16.20
2023-09-01T18:20:14.706Z,16.20
2023-09-01T18:26:16.505Z,16.20
2023-09-01T18:32:20.600Z,16.20
2023-09-01T18:38:22.433Z,16.10
2023-09-01T18:44:24.117Z,16.10
2023-09-01T18:50:25.846Z,16.10
2023-09-01T18:56:27.608Z,16.10
2023-09-01T19:02:37.059Z,16.10
2023-09-01T19:08:39.587Z,16.10
2023-09-01T19:14:41.709Z,16.00
2023-09-01T19:20:43.586Z,16.00
2023-09-01T19:26:45.278Z,16.00
2023-09-01T19:32:47.973Z,16.10
2023-09-01T19:38:52.104Z,16.00
2023-09-01T19:44:53.789Z,16.00
2023-09-01T19:50:55.618Z,16.00
2023-09-01T19:56:57.809Z,16.00
2023-09-01T20:03:01.282Z,16.00
2023-09-01T20:09:16.128Z,15.90
2023-09-01T20:15:23.130Z,15.90
2023-09-01T20:21:25.004Z,15.80
2023-09-01T20:27:26.683Z,15.90
2023-09-01T20:33:29.645Z,15.80
2023-09-01T20:39:31.396Z,15.80
2023-09-01T20:45:33.174Z,15.80
2023-09-01T20:51:34.926Z,15.80
2023-09-01T20:57:42.673Z,15.90
2023-09-01T21:03:44.394Z,15.70
2023-09-01T21:09:46.137Z,15.80
2023-09-01T21:15:49.074Z,15.80
2023-09-01T21:21:51.277Z,15.70
2023-09-01T21:27:53.150Z,15.70
2023-09-01T21:33:54.901Z,15.70
2023-09-01T21:39:56.651Z,15.50
2023-09-01T21:45:58.355Z,15.60
2023-09-01T21:52:00.139Z,15.60
2023-09-01T21:58:02.266Z,15.50
2023-09-01T22:04:04.110Z,15.30
2023-09-01T22:10:06.583Z,15.20
2023-09-01T22:16:11.010Z,15.30
2023-09-01T22:22:12.864Z,15.30
2023-09-01T22:28:15.178Z,15.30
2023-09-01T22:34:17.015Z,15.30
2023-09-01T22:40:18.793Z,15.30
2023-09-01T22:46:20.571Z,15.20
2023-09-01T22:52:22.686Z,15.20
2023-09-01T22:58:24.951Z,15.20
2023-09-01T23:04:26.922Z,15.20
2023-09-01T23:10:28.844Z,15.10
2023-09-01T23:16:30.594Z,15.20
2023-09-01T23:22:32.706Z,15.10
2023-09-01T23:28:34.480Z,15.10
2023-09-01T23:34:37.072Z,15.00
2023-09-01T23:40:38.915Z,14.90
2023-09-01T23:46:40.764Z,14.80
2023-09-01T23:52:42.482Z,14.80
2023-09-01T23:58:44.142Z,14.60
